Time;durP1;ratioP1;P1;durP2;ratioP2;P2;SDS_P1;SDS_P2;PMS_P1;PMS_P2;Temp;Humidity;BMP_temperature;BMP_pressure;BME280_temperature;BME280_humidity;BME280_pressure;Samples;Min_cycle;Max_cycle;Signal;HPM_P1;HPM_P2
2022/12/21 00:01:11;;;;;;;2.42;1.40;;;10.00;84.80;;;;;;5052466;28;20689;-78
2022/12/21 00:03:36;;;;;;;2.40;1.38;;;10.10;84.90;;;;;;5054423;28;20025;-78
2022/12/21 00:06:04;;;;;;;2.20;1.30;;;10.10;84.80;;;;;;5052900;28;20094;-78
2022/12/21 00:08:30;;;;;;;2.35;1.40;;;10.00;84.80;;;;;;5053817;28;20053;-77
2022/12/21 00:10:59;;;;;;;2.40;1.27;;;10.10;84.90;;;;;;5053263;28;20025;-78
2022/12/21 00:13:25;;;;;;;2.42;1.48;;;10.10;84.80;;;;;;5053098;28;20021;-78
2022/12/21 00:15:58;;;;;;;2.78;1.48;;;10.10;84.80;;;;;;5052786;28;20047;-78
2022/12/21 00:18:24;;;;;;;2.20;1.40;;;10.00;84.80;;;;;;5052462;28;20452;-78
2022/12/21 00:20:57;;;;;;;2.22;1.30;;;10.10;84.80;;;;;;5052254;28;20025;-78
2022/12/21 00:23:22;;;;;;;2.67;1.40;;;10.10;84.80;;;;;;5053581;28;20496;-78
2022/12/21 00:25:48;;;;;;;2.72;1.50;;;10.10;84.70;;;;;;5053507;28;20032;-78
2022/12/21 00:28:13;;;;;;;4.78;1.45;;;10.10;84.70;;;;;;5053734;28;20508;-78
2022/12/21 00:30:39;;;;;;;2.30;1.40;;;10.00;84.70;;;;;;5052859;28;20033;-77
2022/12/21 00:33:04;;;;;;;2.60;1.38;;;10.00;84.70;;;;;;5051913;28;20055;-78
2022/12/21 00:35:30;;;;;;;2.60;1.40;;;10.10;84.70;;;;;;5052980;28;20025;-78
2022/12/21 00:37:55;;;;;;;2.45;1.65;;;10.00;84.60;;;;;;5051423;28;20120;-78
2022/12/21 00:40:21;;;;;;;2.60;1.40;;;10.00;84.70;;;;;;5051884;28;20497;-78
2022/12/21 00:42:46;;;;;;;2.95;1.52;;;10.10;84.70;;;;;;5052936;28;20036;-78
2022/12/21 00:45:12;;;;;;;2.88;1.42;;;10.00;84.70;;;;;;5051939;28;20444;-78
2022/12/21 00:47:37;;;;;;;2.72;1.40;;;10.10;84.70;;;;;;5053488;28;20032;-78
2022/12/21 00:50:03;;;;;;;2.47;1.50;;;10.00;84.60;;;;;;5051349;28;20064;-79
2022/12/21 00:52:28;;;;;;;2.25;1.40;;;10.00;84.60;;;;;;5052877;28;20026;-78
2022/12/21 00:54:54;;;;;;;2.40;1.30;;;10.10;84.50;;;;;;5053250;28;20057;-78
2022/12/21 00:57:19;;;;;;;2.78;1.50;;;10.10;84.50;;;;;;5051618;28;20027;-78
2022/12/21 00:59:45;;;;;;;3.22;1.35;;;10.10;84.50;;;;;;5053686;28;20032;-77
2022/12/21 01:02:10;;;;;;;1.95;1.30;;;10.10;84.30;;;;;;5053032;28;20052;-78
2022/12/21 01:04:36;;;;;;;2.05;1.15;;;10.10;84.30;;;;;;5051993;28;20416;-77
2022/12/21 01:07:01;;;;;;;2.08;1.45;;;10.10;84.80;;;;;;5053368;28;20032;-78
2022/12/21 01:09:27;;;;;;;2.20;1.40;;;10.10;84.10;;;;;;5057492;28;20446;-78
2022/12/21 01:11:52;;;;;;;2.15;1.30;;;10.20;84.10;;;;;;5071138;28;20036;-78
2022/12/21 01:14:17;;;;;;;1.92;1.20;;;10.20;84.00;;;;;;5072988;28;20477;-78
2022/12/21 01:16:43;;;;;;;2.80;1.30;;;10.20;83.90;;;;;;5072378;28;20024;-79
2022/12/21 01:19:09;;;;;;;2.22;1.30;;;10.20;83.90;;;;;;5075110;28;20043;-79
2022/12/21 01:21:35;;;;;;;2.42;1.30;;;10.20;83.80;;;;;;5073834;28;20112;-79
2022/12/21 01:24:00;;;;;;;2.05;1.40;;;10.20;83.90;;;;;;5074982;28;20021;-79
2022/12/21 01:26:26;;;;;;;3.42;1.88;;;10.10;83.90;;;;;;5074176;28;20090;-79
2022/12/21 01:28:52;;;;;;;2.78;1.40;;;10.10;84.00;;;;;;5074692;28;20060;-78
2022/12/21 01:31:18;;;;;;;2.67;1.60;;;10.10;84.10;;;;;;5072701;28;20571;-79
2022/12/21 01:33:44;;;;;;;2.80;1.60;;;10.10;84.20;;;;;;5074018;28;20108;-79
2022/12/21 01:36:13;;;;;;;2.65;1.50;;;10.10;84.30;;;;;;5074539;28;20040;-78
2022/12/21 01:38:40;;;;;;;2.33;1.40;;;10.10;84.30;;;;;;5074510;28;20110;-79
2022/12/21 01:41:08;;;;;;;2.50;1.60;;;10.10;84.40;;;;;;5071981;28;20024;-78
2022/12/21 01:43:55;;;;;;;3.05;1.58;;;10.10;84.50;;;;;;5072447;28;20103;-79
2022/12/21 01:46:30;;;;;;;2.63;1.33;;;10.00;84.50;;;;;;5071918;28;20031;-78
2022/12/21 01:49:02;;;;;;;2.90;1.65;;;10.10;84.50;;;;;;5072150;28;20790;-78
2022/12/21 01:51:29;;;;;;;2.55;1.40;;;10.00;84.50;;;;;;5073338;28;20025;-79
2022/12/21 01:53:59;;;;;;;2.03;1.33;;;10.10;84.60;;;;;;5073271;28;20032;-78
2022/12/21 01:56:32;;;;;;;3.08;1.50;;;10.00;84.60;;;;;;5073214;28;20024;-79
2022/12/21 01:59:06;;;;;;;2.75;1.42;;;10.00;84.60;;;;;;5071735;28;20532;-78
2022/12/21 02:01:31;;;;;;;2.85;1.50;;;10.00;84.60;;;;;;5075548;28;20488;-79
2022/12/21 02:03:57;;;;;;;2.28;1.38;;;10.00;84.60;;;;;;5077653;28;20027;-78
2022/12/21 02:06:28;;;;;;;2.60;1.40;;;10.00;84.60;;;;;;5076635;28;20027;-78
2022/12/21 02:08:55;;;;;;;2.50;1.40;;;10.00;84.70;;;;;;5078184;28;20035;-78
2022/12/21 02:11:21;;;;;;;3.20;1.52;;;10.00;84.60;;;;;;5075759;28;20078;-78
2022/12/21 02:13:46;;;;;;;2.83;1.50;;;10.00;84.70;;;;;;5077829;28;20021;-78
2022/12/21 02:16:36;;;;;;;2.72;1.45;;;10.00;84.70;;;;;;5077567;28;20123;-78
2022/12/21 02:19:38;;;;;;;2.80;1.67;;;10.00;84.70;;;;;;5076503;28;20067;-78
2022/12/21 02:22:23;;;;;;;2.22;1.58;;;10.00;84.60;;;;;;5076477;28;20066;-78
2022/12/21 02:25:14;;;;;;;2.40;1.50;;;10.00;84.60;;;;;;5075811;28;20024;-77
2022/12/21 02:28:31;;;;;;;2.67;1.42;;;10.00;84.70;;;;;;5077481;28;20063;-78
2022/12/21 02:31:16;;;;;;;2.10;1.30;;;10.00;84.60;;;;;;5075473;28;20060;-78
2022/12/21 02:34:07;;;;;;;2.67;1.50;;;10.00;84.70;;;;;;5075716;28;20040;-79
2022/12/21 02:37:00;;;;;;;3.38;1.50;;;10.00;84.70;;;;;;5075678;28;20031;-78
2022/12/21 02:39:45;;;;;;;3.03;1.83;;;10.00;84.60;;;;;;5076649;28;20082;-79
2022/12/21 02:45:28;;;;;;;2.88;1.60;;;10.00;84.70;;;;;;5056649;28;20124;-78
2022/12/21 02:48:05;;;;;;;2.78;1.63;;;10.00;84.60;;;;;;5076879;28;20032;-78
2022/12/21 02:50:36;;;;;;;2.55;1.48;;;10.00;84.60;;;;;;5076018;28;20017;-78
2022/12/21 02:53:15;;;;;;;2.30;1.35;;;10.00;84.60;;;;;;5076249;28;20060;-78
2022/12/21 02:55:43;;;;;;;2.88;1.60;;;10.00;84.70;;;;;;5076331;28;20111;-78
2022/12/21 02:58:21;;;;;;;1.98;1.40;;;10.00;84.70;;;;;;5076120;28;20017;-78
2022/12/21 03:00:52;;;;;;;3.05;1.67;;;10.00;84.60;;;;;;5073986;28;20051;-78
2022/12/21 03:03:49;;;;;;;2.60;1.60;;;10.00;84.60;;;;;;5075774;28;20024;-78
2022/12/21 03:06:29;;;;;;;3.58;2.00;;;10.00;84.60;;;;;;5074578;28;20029;-78
2022/12/21 03:09:10;;;;;;;2.60;1.55;;;10.00;84.60;;;;;;5074881;28;20044;-78
2022/12/21 03:11:53;;;;;;;2.95;1.70;;;10.00;84.60;;;;;;5074455;28;20108;-78
2022/12/21 03:14:37;;;;;;;2.20;1.42;;;10.00;84.60;;;;;;5078652;28;20024;-78
2022/12/21 03:17:43;;;;;;;2.78;1.60;;;10.00;84.60;;;;;;5077960;28;20170;-77
2022/12/21 03:20:24;;;;;;;3.45;1.73;;;10.00;84.60;;;;;;5012765;28;20025;-79
2022/12/21 03:23:04;;;;;;;3.17;1.63;;;10.00;84.60;;;;;;5052523;28;20044;-78
2022/12/21 03:25:54;;;;;;;2.83;1.60;;;10.00;84.60;;;;;;5053779;28;20036;-78
2022/12/21 03:28:26;;;;;;;2.95;1.60;;;10.00;84.60;;;;;;5054302;28;20035;-78
2022/12/21 03:30:55;;;;;;;2.35;1.52;;;10.00;84.60;;;;;;5055130;28;20063;-79
2022/12/21 03:33:25;;;;;;;2.78;1.60;;;10.00;84.50;;;;;;5055339;28;20511;-78
2022/12/21 03:36:00;;;;;;;3.10;1.60;;;10.00;84.60;;;;;;5053621;28;20374;-79
2022/12/21 03:38:43;;;;;;;3.20;1.55;;;10.00;84.50;;;;;;5054829;28;20110;-78
2022/12/21 03:41:15;;;;;;;2.95;1.67;;;10.00;84.60;;;;;;5053060;28;20060;-80
2022/12/21 03:43:42;;;;;;;3.25;1.70;;;10.00;84.50;;;;;;5053578;28;20025;-78
2022/12/21 03:46:17;;;;;;;3.53;2.00;;;10.00;84.50;;;;;;5054792;28;20025;-78
2022/12/21 03:48:56;;;;;;;3.78;1.88;;;10.00;84.50;;;;;;5053609;28;20040;-79
2022/12/21 03:51:29;;;;;;;3.38;1.70;;;10.00;84.50;;;;;;5054598;28;20056;-78
2022/12/21 03:54:05;;;;;;;3.75;1.63;;;10.00;84.50;;;;;;5052962;28;20021;-78
2022/12/21 03:56:36;;;;;;;2.38;1.58;;;10.00;84.50;;;;;;5053123;28;20020;-78
2022/12/21 03:59:03;;;;;;;2.63;1.60;;;10.00;85.10;;;;;;5054144;28;20017;-78
2022/12/21 04:01:50;;;;;;;2.60;1.50;;;10.00;84.50;;;;;;5053190;28;20025;-78
2022/12/21 04:04:33;;;;;;;3.05;1.70;;;10.00;84.50;;;;;;5053065;28;20028;-78
2022/12/21 04:07:02;;;;;;;3.10;1.60;;;10.00;84.50;;;;;;5052681;28;20028;-78
2022/12/21 04:09:27;;;;;;;2.47;1.45;;;10.00;84.50;;;;;;5053867;28;20787;-78
2022/12/21 04:14:38;;;;;;;3.78;1.67;;;10.00;84.50;;;;;;5054261;28;20090;-78
2022/12/21 04:17:04;;;;;;;2.63;1.50;;;10.10;84.50;;;;;;5052424;28;20477;-78
2022/12/21 04:28:06;;;;;;;2.88;1.60;;;10.00;84.50;;;;;;5053851;28;20400;-78
2022/12/21 04:30:27;;;;;;;3.33;1.67;;;10.00;84.30;;;;;;5055823;28;20051;-80
2022/12/21 04:32:52;;;;;;;2.85;1.60;;;10.10;84.20;;;;;;5054286;28;20477;-80
2022/12/21 04:35:18;;;;;;;2.97;1.73;;;10.00;84.20;;;;;;5054077;28;20017;-79
2022/12/21 04:37:43;;;;;;;2.47;1.50;;;10.10;84.10;;;;;;5055330;28;20041;-80
2022/12/21 04:40:09;;;;;;;3.33;1.70;;;10.10;84.00;;;;;;5053824;28;20025;-81
2022/12/21 04:42:37;;;;;;;2.63;1.63;;;10.10;83.80;;;;;;5054186;28;20025;-80
2022/12/21 04:45:03;;;;;;;3.53;1.63;;;10.20;83.80;;;;;;5053988;28;20025;-80
2022/12/21 04:47:28;;;;;;;2.70;1.50;;;10.20;83.70;;;;;;5055035;28;20023;-79
2022/12/21 04:49:54;;;;;;;3.08;1.65;;;10.20;83.60;;;;;;5053925;28;20053;-79
2022/12/21 04:52:19;;;;;;;3.35;1.70;;;10.20;83.60;;;;;;5053560;28;20473;-79
2022/12/21 04:54:44;;;;;;;3.38;1.60;;;10.20;83.50;;;;;;5054381;28;20124;-79
2022/12/21 04:57:10;;;;;;;2.67;1.63;;;10.20;83.70;;;;;;5053066;28;20552;-78
2022/12/21 04:59:35;;;;;;;3.05;1.55;;;10.10;83.80;;;;;;5053184;28;20025;-79
2022/12/21 05:02:01;;;;;;;2.80;1.60;;;10.10;83.90;;;;;;5053259;28;20071;-80
2022/12/21 05:04:26;;;;;;;3.15;1.70;;;10.10;83.90;;;;;;5054354;28;20040;-79
2022/12/21 05:06:52;;;;;;;3.10;1.73;;;10.10;84.00;;;;;;5052964;28;20461;-78
2022/12/21 05:09:18;;;;;;;2.70;1.60;;;10.10;84.10;;;;;;5052755;28;20029;-79
2022/12/21 05:11:43;;;;;;;3.17;1.70;;;10.10;84.20;;;;;;5052093;28;20078;-80
2022/12/21 05:14:09;;;;;;;2.60;1.40;;;10.00;84.20;;;;;;5078470;28;20099;-78
2022/12/21 05:16:35;;;;;;;2.80;1.65;;;10.00;84.30;;;;;;5074746;28;20024;-80
2022/12/21 05:19:00;;;;;;;2.78;1.58;;;10.00;84.40;;;;;;5073934;28;20020;-80
2022/12/21 05:21:25;;;;;;;2.95;1.60;;;10.10;84.50;;;;;;5073749;28;20534;-80
2022/12/21 05:23:51;;;;;;;3.08;1.70;;;10.00;84.40;;;;;;5073901;28;20024;-79
2022/12/21 05:26:17;;;;;;;2.83;1.60;;;10.00;84.50;;;;;;5073476;28;20033;-80
2022/12/21 05:28:44;;;;;;;3.22;1.77;;;10.00;84.50;;;;;;5067997;28;20028;-79
2022/12/21 05:31:10;;;;;;;3.22;1.70;;;9.90;84.50;;;;;;5073570;28;20031;-78
2022/12/21 05:33:36;;;;;;;3.00;1.73;;;10.00;84.50;;;;;;5075741;28;20086;-78
2022/12/21 05:36:04;;;;;;;3.15;1.67;;;10.00;84.60;;;;;;5075469;28;20472;-77
2022/12/21 05:38:29;;;;;;;2.88;1.70;;;10.00;84.50;;;;;;5081398;28;20036;-81
2022/12/21 05:40:54;;;;;;;3.33;1.70;;;10.00;84.60;;;;;;5081150;28;20029;-78
2022/12/21 05:43:20;;;;;;;2.60;1.60;;;10.00;84.60;;;;;;5076904;28;20032;-78
2022/12/21 05:45:45;;;;;;;2.53;1.60;;;10.00;84.60;;;;;;5075977;28;20545;-79
2022/12/21 05:48:11;;;;;;;4.40;1.70;;;10.00;84.60;;;;;;5077870;28;20033;-80
2022/12/21 05:50:40;;;;;;;3.17;1.70;;;10.00;84.60;;;;;;5076458;28;20405;-81
2022/12/21 05:53:07;;;;;;;3.40;1.88;;;10.00;84.60;;;;;;5076698;28;20108;-79
2022/12/21 05:55:33;;;;;;;3.70;1.90;;;10.00;85.20;;;;;;5075366;28;20021;-80
2022/12/21 05:57:58;;;;;;;3.33;1.75;;;10.00;84.60;;;;;;5066817;28;20459;-79
2022/12/21 06:00:24;;;;;;;2.30;1.58;;;10.00;84.70;;;;;;5068374;28;20063;-80
2022/12/21 06:02:50;;;;;;;3.67;1.88;;;10.00;84.60;;;;;;5068080;28;20476;-77
2022/12/21 06:05:16;;;;;;;3.10;1.58;;;10.00;84.60;;;;;;5060414;28;20074;-77
2022/12/21 06:07:41;;;;;;;2.88;1.63;;;10.00;84.70;;;;;;5055424;28;20032;-76
2022/12/21 06:10:07;;;;;;;3.90;1.65;;;10.00;84.70;;;;;;5071621;28;20403;-78
2022/12/21 06:12:34;;;;;;;3.95;1.80;;;10.00;84.60;;;;;;5073587;28;20035;-78
2022/12/21 06:15:00;;;;;;;3.88;1.80;;;10.00;84.70;;;;;;5073514;28;20132;-77
2022/12/21 06:17:29;;;;;;;3.58;1.98;;;10.00;84.70;;;;;;5062749;28;20184;-77
2022/12/21 06:19:55;;;;;;;2.95;1.77;;;10.00;84.70;;;;;;5060207;28;20128;-74
2022/12/21 06:22:20;;;;;;;3.38;1.73;;;10.00;84.60;;;;;;5059833;28;20112;-74
2022/12/21 06:24:46;;;;;;;3.70;2.00;;;10.00;84.70;;;;;;5059651;28;20226;-78
2022/12/21 06:27:11;;;;;;;3.25;1.80;;;10.00;84.60;;;;;;5053659;28;20498;-78
2022/12/21 06:29:37;;;;;;;3.40;1.88;;;10.00;84.70;;;;;;5054289;28;20025;-77
2022/12/21 06:32:03;;;;;;;3.78;1.60;;;10.00;84.70;;;;;;5055408;28;20589;-77
2022/12/21 06:34:28;;;;;;;3.42;1.77;;;10.00;84.70;;;;;;5053938;28;20591;-77
2022/12/21 06:36:56;;;;;;;3.03;1.50;;;10.00;84.60;;;;;;5062948;28;20078;-79
2022/12/21 06:39:22;;;;;;;4.05;1.95;;;10.00;84.70;;;;;;5055426;28;20378;-78
2022/12/21 06:41:47;;;;;;;4.68;1.88;;;10.00;84.70;;;;;;5059849;28;20032;-79
2022/12/21 06:44:13;;;;;;;3.28;1.77;;;10.00;84.70;;;;;;5073292;28;20024;-77
2022/12/21 06:46:38;;;;;;;3.05;1.65;;;10.00;84.70;;;;;;5072619;28;20021;-81
2022/12/21 06:49:04;;;;;;;3.20;1.80;;;10.00;84.70;;;;;;5071316;28;20074;-78
2022/12/21 06:51:29;;;;;;;2.58;1.60;;;10.00;84.60;;;;;;5056474;28;20485;-80
2022/12/21 06:53:55;;;;;;;2.75;1.60;;;10.00;84.70;;;;;;5058390;28;20108;-78
2022/12/21 06:56:23;;;;;;;3.28;1.60;;;10.00;84.60;;;;;;5055780;28;20116;-75
2022/12/21 06:58:50;;;;;;;3.50;1.80;;;10.00;84.70;;;;;;5054836;28;20024;-77
2022/12/21 07:01:18;;;;;;;3.90;1.65;;;10.00;84.70;;;;;;5058023;28;20025;-78
2022/12/21 07:03:44;;;;;;;2.75;1.60;;;10.00;84.70;;;;;;5066800;28;20054;-77
2022/12/21 07:06:11;;;;;;;3.72;2.08;;;10.00;84.60;;;;;;5074907;28;20021;-78
2022/12/21 07:08:37;;;;;;;2.80;1.48;;;10.00;84.70;;;;;;5057512;28;20037;-77
2022/12/21 07:11:06;;;;;;;3.28;1.80;;;10.00;84.60;;;;;;5055377;28;20021;-75
2022/12/21 07:13:38;;;;;;;3.72;1.90;;;10.00;84.60;;;;;;5054212;28;20048;-78
2022/12/21 07:16:04;;;;;;;3.97;1.95;;;10.00;84.70;;;;;;5053990;28;20028;-77
2022/12/21 07:18:29;;;;;;;3.50;1.92;;;10.00;84.60;;;;;;5053902;28;20025;-77
2022/12/21 07:20:56;;;;;;;3.28;1.90;;;10.00;84.60;;;;;;5052502;28;20029;-77
2022/12/21 07:23:22;;;;;;;4.07;1.95;;;10.00;84.60;;;;;;5052130;28;20029;-78
2022/12/21 07:25:48;;;;;;;3.10;1.90;;;10.00;84.60;;;;;;5053011;28;20048;-77
2022/12/21 07:28:13;;;;;;;6.00;2.63;;;10.00;84.60;;;;;;5053004;28;20029;-78
2022/12/21 07:30:39;;;;;;;5.95;2.40;;;10.00;84.80;;;;;;5052381;28;20477;-77
2022/12/21 07:33:04;;;;;;;5.53;2.30;;;10.00;84.60;;;;;;5052427;28;20021;-75
2022/12/21 07:35:31;;;;;;;5.95;2.67;;;10.10;84.70;;;;;;5055235;28;20045;-78
2022/12/21 07:37:56;;;;;;;5.90;2.85;;;10.10;84.70;;;;;;5054548;28;20033;-75
2022/12/21 07:40:22;;;;;;;6.57;3.20;;;10.10;84.70;;;;;;5074876;28;20033;-78
2022/12/21 07:42:47;;;;;;;11.55;3.22;;;10.00;84.70;;;;;;5073923;28;20054;-79
2022/12/21 07:45:13;;;;;;;6.32;2.97;;;10.00;84.70;;;;;;5056688;28;20156;-79
2022/12/21 07:47:39;;;;;;;5.70;2.83;;;10.10;84.80;;;;;;5053991;28;20497;-82
2022/12/21 07:50:07;;;;;;;7.15;2.97;;;10.00;84.70;;;;;;5055178;28;20048;-79
2022/12/21 07:52:33;;;;;;;5.70;2.50;;;10.00;84.70;;;;;;5060453;28;20032;-81
2022/12/21 07:54:59;;;;;;;6.63;2.72;;;10.00;84.70;;;;;;5054288;28;20025;-80
2022/12/21 07:57:24;;;;;;;4.88;2.50;;;10.00;84.70;;;;;;5055044;28;20025;-79
2022/12/21 07:59:50;;;;;;;5.43;2.90;;;10.00;84.70;;;;;;5060690;28;20067;-78
2022/12/21 08:02:16;;;;;;;6.15;3.10;;;10.00;84.70;;;;;;5061848;28;20086;-79
2022/12/21 08:04:41;;;;;;;6.45;2.70;;;10.00;84.60;;;;;;5074358;28;20037;-78
2022/12/21 08:07:07;;;;;;;5.55;2.75;;;10.00;84.50;;;;;;5073461;28;20512;-78
2022/12/21 08:09:33;;;;;;;6.57;2.90;;;10.00;84.40;;;;;;5074034;28;20105;-79
2022/12/21 08:11:58;;;;;;;5.68;2.67;;;10.00;84.40;;;;;;5074919;28;20032;-80
2022/12/21 08:14:24;;;;;;;8.18;2.97;;;10.00;84.40;;;;;;5074851;28;20025;-78
2022/12/21 08:16:50;;;;;;;5.22;2.58;;;10.10;84.20;;;;;;5059725;28;20404;-77
2022/12/21 08:19:15;;;;;;;9.75;3.20;;;10.10;84.70;;;;;;5052736;28;20033;-77
2022/12/21 08:21:41;;;;;;;5.25;2.85;;;10.10;84.40;;;;;;5051391;28;20076;-77
2022/12/21 08:24:06;;;;;;;6.15;3.00;;;10.10;84.30;;;;;;5051348;28;20029;-77
2022/12/21 08:26:32;;;;;;;5.35;2.97;;;10.20;84.20;;;;;;5051481;28;20028;-79
2022/12/21 08:28:57;;;;;;;8.90;2.90;;;10.10;84.10;;;;;;5052662;28;20469;-79
2022/12/21 08:31:23;;;;;;;5.35;2.80;;;10.20;84.10;;;;;;5051321;28;20068;-77
2022/12/21 08:33:48;;;;;;;6.65;2.47;;;10.20;84.00;;;;;;5051624;28;20021;-78
2022/12/21 08:36:16;;;;;;;7.25;3.20;;;10.20;84.00;;;;;;5053160;28;20024;-80
2022/12/21 08:38:42;;;;;;;5.82;2.95;;;10.10;84.10;;;;;;5053343;28;20036;-79
2022/12/21 08:41:07;;;;;;;6.57;2.90;;;10.10;84.10;;;;;;5051538;28;20032;-78
2022/12/21 08:43:37;;;;;;;6.95;2.90;;;10.10;84.20;;;;;;5052518;28;20029;-79
2022/12/21 08:46:04;;;;;;;7.65;2.97;;;10.10;84.30;;;;;;5054435;28;20052;-80
2022/12/21 08:48:30;;;;;;;7.10;3.20;;;10.10;84.30;;;;;;5057804;28;20025;-78
2022/12/21 08:50:56;;;;;;;6.03;3.10;;;10.10;84.40;;;;;;5053582;28;20587;-79
2022/12/21 08:53:22;;;;;;;6.18;3.00;;;10.10;84.50;;;;;;5052660;28;20022;-79
2022/12/21 08:55:48;;;;;;;5.90;3.15;;;10.10;84.50;;;;;;5053722;28;20028;-79
2022/12/21 08:58:14;;;;;;;6.15;2.95;;;10.00;84.50;;;;;;5062959;28;20095;-80
2022/12/21 09:00:40;;;;;;;6.20;3.05;;;10.00;84.60;;;;;;5069984;28;20043;-79
2022/12/21 09:03:07;;;;;;;6.65;3.42;;;10.00;84.70;;;;;;5053865;28;20032;-80
2022/12/21 09:05:33;;;;;;;10.25;4.57;;;10.00;84.80;;;;;;5052275;28;20033;-78
2022/12/21 09:07:59;;;;;;;14.23;4.53;;;10.00;84.90;;;;;;5052194;28;20025;-78
2022/12/21 09:10:25;;;;;;;6.85;3.55;;;10.00;85.00;;;;;;5054697;28;20025;-79
2022/12/21 09:12:50;;;;;;;8.65;3.70;;;10.10;85.00;;;;;;5056124;28;20456;-78
2022/12/21 09:15:16;;;;;;;8.70;4.32;;;10.00;85.00;;;;;;5057510;28;20025;-80
2022/12/21 09:17:41;;;;;;;7.65;4.05;;;10.00;85.10;;;;;;5079038;28;20028;-78
2022/12/21 09:20:07;;;;;;;10.13;4.60;;;10.00;85.30;;;;;;5076938;28;20058;-79
2022/12/21 09:22:33;;;;;;;8.07;4.53;;;10.00;85.40;;;;;;5075814;28;20232;-78
2022/12/21 09:24:59;;;;;;;7.25;4.10;;;10.00;85.30;;;;;;5076989;28;20373;-78
2022/12/21 09:27:24;;;;;;;7.10;3.72;;;10.00;85.30;;;;;;5077761;28;20058;-79
2022/12/21 09:29:50;;;;;;;6.63;3.50;;;10.00;85.40;;;;;;5077298;28;20071;-78
2022/12/21 09:32:15;;;;;;;8.57;3.90;;;10.00;85.30;;;;;;5076983;28;20505;-78
2022/12/21 09:34:41;;;;;;;9.13;3.47;;;10.00;85.30;;;;;;5075633;28;20096;-79
2022/12/21 09:37:06;;;;;;;6.60;3.78;;;10.00;85.20;;;;;;5075151;28;20538;-79
2022/12/21 09:39:32;;;;;;;7.18;3.40;;;10.10;85.20;;;;;;5077172;28;20025;-79
2022/12/21 09:42:36;;;;;;;7.72;3.45;;;10.00;85.20;;;;;;5078474;28;20021;-79
2022/12/21 09:45:24;;;;;;;8.00;3.30;;;10.00;85.10;;;;;;5077612;28;20020;-79
2022/12/21 09:48:07;;;;;;;8.00;3.88;;;10.00;85.20;;;;;;5076633;28;20020;-78
2022/12/21 09:50:46;;;;;;;6.68;3.80;;;10.00;85.10;;;;;;5076356;28;20051;-78
2022/12/21 09:53:58;;;;;;;9.48;3.70;;;10.00;85.10;;;;;;5075063;28;20021;-78
2022/12/21 09:56:25;;;;;;;8.48;3.47;;;10.00;85.10;;;;;;5069947;28;20036;-78
2022/12/21 09:58:52;;;;;;;6.70;3.42;;;10.00;85.20;;;;;;5076755;28;20027;-82
2022/12/21 10:01:47;;;;;;;6.05;3.15;;;10.00;85.10;;;;;;5075208;28;20679;-79
2022/12/21 10:04:25;;;;;;;6.65;3.50;;;10.00;85.10;;;;;;5066512;28;20036;-77
2022/12/21 10:07:15;;;;;;;6.45;3.05;;;10.00;85.30;;;;;;5075059;28;20439;-78
2022/12/21 10:10:00;;;;;;;5.97;3.17;;;10.00;85.10;;;;;;5075434;28;20124;-79
2022/12/21 10:12:59;;;;;;;8.80;4.38;;;10.00;85.10;;;;;;5075921;28;20476;-79
2022/12/21 10:15:32;;;;;;;6.80;3.65;;;10.00;85.10;;;;;;5075189;28;20025;-78
2022/12/21 10:18:20;;;;;;;9.65;3.90;;;10.00;85.10;;;;;;5077606;28;20024;-79
2022/12/21 10:21:21;;;;;;;6.78;3.55;;;10.10;85.20;;;;;;5074526;28;20488;-78
2022/12/21 10:23:49;;;;;;;6.63;3.30;;;10.00;85.10;;;;;;5080115;28;20020;-80
2022/12/21 10:26:19;;;;;;;6.60;3.60;;;10.00;85.10;;;;;;5078905;28;20044;-78
2022/12/21 10:28:53;;;;;;;6.55;3.58;;;10.00;85.10;;;;;;5077195;28;20090;-78
2022/12/21 10:31:40;;;;;;;6.97;3.78;;;10.00;85.00;;;;;;5075674;28;20027;-78
2022/12/21 10:34:16;;;;;;;6.85;3.40;;;10.00;85.00;;;;;;5074760;28;20025;-79
2022/12/21 10:36:43;;;;;;;6.40;3.55;;;10.00;85.00;;;;;;5075510;28;20028;-78
2022/12/21 10:39:13;;;;;;;6.20;3.40;;;10.00;85.00;;;;;;5074700;28;20392;-78
2022/12/21 10:41:49;;;;;;;7.00;3.75;;;10.10;85.10;;;;;;5075495;28;20052;-78
2022/12/21 10:44:14;;;;;;;6.60;3.40;;;10.10;85.10;;;;;;5077414;28;20153;-79
2022/12/21 10:46:40;;;;;;;6.40;3.00;;;10.10;85.10;;;;;;5078600;28;20071;-79
2022/12/21 10:49:23;;;;;;;6.05;3.28;;;10.00;85.00;;;;;;5077818;28;20025;-78
2022/12/21 10:51:48;;;;;;;6.30;3.30;;;10.10;85.00;;;;;;5076757;28;20150;-80
2022/12/21 10:54:25;;;;;;;6.68;3.25;;;10.10;85.00;;;;;;5076281;28;20033;-80
2022/12/21 10:56:51;;;;;;;6.85;3.58;;;10.00;85.00;;;;;;5076464;28;20020;-79
2022/12/21 10:59:38;;;;;;;9.90;3.15;;;10.10;85.00;;;;;;5076210;28;20021;-79
2022/12/21 11:02:06;;;;;;;7.20;3.42;;;10.10;85.00;;;;;;5077305;28;20029;-78
2022/12/21 11:04:32;;;;;;;7.03;3.40;;;10.10;84.90;;;;;;5075806;28;20070;-79
2022/12/21 11:07:04;;;;;;;6.20;3.20;;;10.10;84.90;;;;;;5076216;28;20115;-79
2022/12/21 11:09:35;;;;;;;;;;;10.00;84.80;;;;;;5076994;28;20020;-79
2022/12/21 11:12:22;;;;;;;6.53;3.30;;;10.10;84.80;;;;;;5074694;28;19953;-78
2022/12/21 11:14:49;;;;;;;6.35;3.38;;;10.10;85.40;;;;;;5075150;28;20063;-79
2022/12/21 11:17:25;;;;;;;6.60;3.45;;;10.10;84.90;;;;;;5075246;28;20150;-79
2022/12/21 11:20:05;;;;;;;7.20;3.38;;;10.00;84.80;;;;;;5079804;28;20025;-80
2022/12/21 11:22:31;;;;;;;7.20;3.65;;;10.10;84.80;;;;;;5078980;28;20104;-78
2022/12/21 11:24:58;;;;;;;5.75;3.08;;;10.10;84.80;;;;;;5076622;28;20151;-78
2022/12/21 11:27:32;;;;;;;6.43;3.20;;;10.20;85.00;;;;;;5083607;28;20380;-81
2022/12/21 11:30:01;;;;;;;7.57;3.40;;;10.30;84.00;;;;;;5081872;28;20114;-79
2022/12/21 11:32:28;;;;;;;5.85;3.03;;;10.20;83.90;;;;;;5075112;28;20017;-81
2022/12/21 11:34:57;;;;;;;6.45;3.58;;;10.20;84.00;;;;;;5075832;28;20031;-81
2022/12/21 11:37:25;;;;;;;7.15;3.65;;;10.20;84.20;;;;;;5069778;28;20045;-79
2022/12/21 11:39:51;;;;;;;5.97;3.25;;;10.20;84.30;;;;;;5055510;28;20039;-81
2022/12/21 11:42:20;;;;;;;7.32;3.50;;;10.20;84.50;;;;;;5058020;28;20108;-81
2022/12/21 11:44:46;;;;;;;6.25;3.42;;;10.20;84.60;;;;;;5056712;28;20570;-82
2022/12/21 11:47:27;;;;;;;6.13;3.25;;;10.20;84.50;;;;;;5057198;28;20025;-82
2022/12/21 11:50:21;;;;;;;6.10;3.37;;;10.20;84.50;;;;;;5057919;28;20085;-81
2022/12/21 11:53:11;;;;;;;5.55;2.90;;;10.20;84.30;;;;;;5055839;28;20279;-81
2022/12/21 11:55:53;;;;;;;7.60;3.30;;;10.20;84.20;;;;;;5054960;28;20017;-81
2022/12/21 11:58:34;;;;;;;6.15;3.22;;;10.20;84.00;;;;;;5056166;28;20032;-80
2022/12/21 12:01:32;;;;;;;5.93;3.15;;;10.30;84.00;;;;;;5054631;28;20025;-82
2022/12/21 12:04:27;;;;;;;6.25;3.50;;;10.30;83.90;;;;;;5054960;28;20396;-79
2022/12/21 12:07:41;;;;;;;5.95;3.20;;;10.30;84.00;;;;;;5054322;28;20028;-82
2022/12/21 12:10:32;;;;;;;6.78;3.40;;;10.30;84.00;;;;;;5038310;28;20500;-81
2022/12/21 12:13:12;;;;;;;5.80;3.13;;;10.30;84.20;;;;;;5057975;28;20398;-78
2022/12/21 12:16:01;;;;;;;7.20;3.60;;;10.30;84.10;;;;;;5054720;28;20019;-77
2022/12/21 12:18:34;;;;;;;11.68;4.00;;;10.30;84.10;;;;;;5054072;28;20392;-78
2022/12/21 12:21:12;;;;;;;12.80;4.57;;;10.30;84.30;;;;;;5053302;28;20032;-78
2022/12/21 12:23:46;;;;;;;10.07;4.30;;;10.40;84.30;;;;;;5052141;28;20052;-78
2022/12/21 12:26:26;;;;;;;10.40;4.60;;;10.40;84.70;;;;;;5057821;28;20029;-81
2022/12/21 12:29:09;;;;;;;10.25;5.13;;;10.30;84.30;;;;;;5055996;28;20024;-79
2022/12/21 12:32:01;;;;;;;8.57;4.75;;;10.30;84.60;;;;;;5063765;28;20036;-79
2022/12/21 12:34:39;;;;;;;10.93;4.85;;;10.30;85.00;;;;;;5073912;28;20020;-78
2022/12/21 12:37:31;;;;;;;12.02;5.10;;;10.30;85.40;;;;;;5072753;28;20036;-79
2022/12/21 12:40:39;;;;;;;9.65;5.30;;;10.20;85.60;;;;;;5073007;28;20024;-78
2022/12/21 12:43:07;;;;;;;9.70;4.85;;;10.20;85.70;;;;;;5074479;28;20503;-77
2022/12/21 12:46:18;;;;;;;10.27;5.07;;;10.20;85.80;;;;;;5072066;28;20033;-78
2022/12/21 12:49:12;;;;;;;10.13;5.45;;;10.10;85.80;;;;;;4994862;28;20034;-79
2022/12/21 12:51:49;;;;;;;8.25;5.07;;;10.10;85.90;;;;;;5076473;28;20044;-79
2022/12/21 12:54:46;;;;;;;9.05;5.15;;;10.10;85.90;;;;;;5075656;28;20048;-79
2022/12/21 12:57:30;;;;;;;9.35;5.40;;;10.10;85.80;;;;;;5073720;28;20132;-77
2022/12/21 13:00:08;;;;;;;12.07;5.93;;;10.10;85.90;;;;;;5072241;28;20035;-78
2022/12/21 13:03:00;;;;;;;11.18;5.82;;;10.10;86.00;;;;;;5071430;28;20031;-77
2022/12/21 13:05:44;;;;;;;9.57;5.00;;;10.10;86.00;;;;;;5076357;28;20112;-79
2022/12/21 13:08:50;;;;;;;10.95;5.60;;;10.10;86.00;;;;;;5075459;28;20025;-78
2022/12/21 13:11:49;;;;;;;10.07;5.60;;;10.10;86.00;;;;;;5073778;28;20033;-78
2022/12/21 13:14:36;;;;;;;9.25;5.18;;;10.10;86.00;;;;;;5071421;28;20029;-79
2022/12/21 13:17:14;;;;;;;13.73;6.25;;;10.10;86.00;;;;;;5074193;28;20571;-78
2022/12/21 13:19:42;;;;;;;9.52;5.45;;;10.10;86.10;;;;;;5073803;28;20484;-78
2022/12/21 13:22:10;;;;;;;9.88;5.80;;;10.10;86.10;;;;;;5073151;28;20032;-77
2022/12/21 13:24:44;;;;;;;9.38;5.65;;;10.10;86.10;;;;;;5071711;28;20043;-78